Hovedside
METAR-TAF:

METAR-TAF

Lufthavner :

Mendoza, Argentina

breddegrad: 32-50S, lengdegrad: 068-47W, høyde over havet: 705 m

Gjeldene værobservasjon

Denne rapporten ble laget for 49 minutter siden, klokken 03:00 UTC
Flau vind
Temperatur 20°C
Luftfuktighet 56%
Trykk 1013 hPa
Sikt 10 km eller mer
ingen skyer under 1500 m og ingen bygeskyer

METAR: SAME 200300Z 00000KT CAVOK 20/11 Q1013

Tid: 00:49 (03:49 UTC)

Varsel

Denne rapporten ble laget for 4 timer og 49 minutter siden, klokken 23:00 UTC
Varsel gyldig fra 20. klokken 00 UTC til 20. klokken 24 UTC
Vind 5 kt fra Sørøst
Sikt 10 km eller mer
ingen skyer under 1500 m og ingen bygeskyer
Blir
fra 20. klokken 12 UTC til 20. klokken 14 UTC
Sikt 10 km eller mer
Få skyer i en høyde av 4000 ft

TAF: SAME 192300Z 2000/2024 14005KT CAVOK TX25/2020Z TN14/2011Z BECMG 2012/2014 9999 FEW040

Værobservasjoner og værvarsel for over 4000 flyplasser (METAR- og TAF-rapporter).

Tilgjengelige stasjoner er representert av de røde og gule prikkene på kartet.

Hold musepekeren over prikken for å se navnet på stasjonen.

Klikk så for å se værobservasjoner og -varsler.

For å forandre kartet kan du klikke på den grønne knappen med svart kryss for å zoome inn, på den grønne knappen med strek for å zoome ut, eller på de grønne pilene for å se tilstøtende kart.


METAR-TAF: